createdAt,value
2022-12-22T00:00:33.695Z,16.67
2022-12-22T00:03:32.765Z,14.48
2022-12-22T00:06:28.852Z,16.70
2022-12-22T00:09:19.874Z,15.02
2022-12-22T00:12:11.265Z,16.90
2022-12-22T00:15:04.208Z,15.52
2022-12-22T00:17:55.249Z,13.77
2022-12-22T00:20:47.084Z,14.27
2022-12-22T00:23:37.841Z,16.08
2022-12-22T00:26:28.703Z,17.42
2022-12-22T00:29:20.495Z,15.13
2022-12-22T00:32:11.164Z,15.10
2022-12-22T00:35:02.234Z,14.20
2022-12-22T00:37:55.029Z,13.35
2022-12-22T00:40:47.465Z,16.15
2022-12-22T00:43:38.218Z,13.30
2022-12-22T00:46:32.372Z,12.23
2022-12-22T00:49:23.756Z,12.40
2022-12-22T00:52:14.475Z,11.88
2022-12-22T00:55:05.519Z,12.77
2022-12-22T00:57:56.747Z,11.95
2022-12-22T01:00:48.111Z,11.63
2022-12-22T01:03:39.209Z,18.73
2022-12-22T01:06:30.285Z,11.80
2022-12-22T01:09:21.502Z,12.88
2022-12-22T01:12:12.195Z,12.15
2022-12-22T01:15:03.028Z,14.80
2022-12-22T01:17:54.407Z,13.63
2022-12-22T01:20:45.495Z,9.68
2022-12-22T01:23:36.692Z,14.27
2022-12-22T01:26:30.388Z,12.07
2022-12-22T01:29:21.040Z,13.73
2022-12-22T01:32:12.274Z,13.63
2022-12-22T01:35:03.060Z,15.15
2022-12-22T01:37:53.843Z,15.63
2022-12-22T01:40:45.128Z,12.98
2022-12-22T01:43:43.896Z,11.57
2022-12-22T01:46:47.628Z,13.25
2022-12-22T01:49:47.639Z,15.05
2022-12-22T01:52:42.966Z,10.63
2022-12-22T01:55:41.395Z,14.27
2022-12-22T01:58:47.881Z,14.07
2022-12-22T02:01:39.046Z,10.48
2022-12-22T02:04:30.444Z,13.35
2022-12-22T02:07:50.555Z,15.60
2022-12-22T02:11:09.309Z,10.32
2022-12-22T02:14:20.764Z,12.30
2022-12-22T02:17:43.729Z,13.05
2022-12-22T02:21:05.866Z,12.07
2022-12-22T02:24:12.162Z,12.80
2022-12-22T02:27:13.225Z,13.80
2022-12-22T02:30:14.259Z,11.70
2022-12-22T02:33:09.898Z,13.40
2022-12-22T02:36:31.416Z,12.65
2022-12-22T02:39:47.335Z,14.68
2022-12-22T02:42:54.121Z,13.18
2022-12-22T02:46:00.158Z,14.52
2022-12-22T02:49:08.904Z,15.00
2022-12-22T02:52:06.600Z,11.98
2022-12-22T02:54:58.279Z,14.95
2022-12-22T02:57:49.732Z,12.93
2022-12-22T03:00:40.777Z,12.02
2022-12-22T03:03:31.831Z,18.33
2022-12-22T03:06:23.207Z,13.75
2022-12-22T03:09:14.262Z,13.93
2022-12-22T03:12:05.171Z,15.25
2022-12-22T03:14:56.294Z,13.00
2022-12-22T03:17:47.113Z,13.68
2022-12-22T03:20:37.862Z,13.65
2022-12-22T03:23:28.571Z,13.30
2022-12-22T03:26:01.080Z,12.52
2022-12-22T03:28:33.636Z,15.65
2022-12-22T03:31:06.988Z,15.02
2022-12-22T03:33:40.150Z,14.73
2022-12-22T03:36:12.886Z,12.50
2022-12-22T03:38:45.554Z,12.27
2022-12-22T03:41:36.351Z,12.35
2022-12-22T03:44:29.182Z,13.75
2022-12-22T03:47:01.782Z,11.82
2022-12-22T03:49:34.386Z,12.75
2022-12-22T03:52:07.037Z,12.45
2022-12-22T03:54:39.730Z,12.07
2022-12-22T03:57:12.246Z,12.35
2022-12-22T03:59:44.791Z,12.40
2022-12-22T04:02:17.467Z,13.57
2022-12-22T04:04:50.196Z,13.48
2022-12-22T04:07:22.963Z,10.70
2022-12-22T04:10:13.737Z,13.73
2022-12-22T04:12:55.155Z,17.45
2022-12-22T04:15:31.397Z,14.88
2022-12-22T04:18:04.103Z,14.00
2022-12-22T04:20:36.643Z,15.85
2022-12-22T04:23:09.205Z,14.38
2022-12-22T04:25:41.864Z,14.10
2022-12-22T04:28:14.617Z,14.00
2022-12-22T04:30:52.586Z,15.55
2022-12-22T04:33:25.295Z,13.52
2022-12-22T04:35:57.826Z,13.90
2022-12-22T04:38:30.368Z,16.23
2022-12-22T04:41:02.997Z,15.20
2022-12-22T04:43:36.337Z,14.65
2022-12-22T04:48:42.002Z,15.98
2022-12-22T04:51:14.822Z,14.15
2022-12-22T04:53:47.411Z,15.93
2022-12-22T04:56:20.111Z,15.68
2022-12-22T04:58:52.734Z,15.80
2022-12-22T05:01:25.483Z,14.35
2022-12-22T05:03:58.040Z,15.60
2022-12-22T05:06:30.730Z,12.93
2022-12-22T05:09:03.282Z,19.13
2022-12-22T05:11:35.973Z,12.63
2022-12-22T05:14:08.590Z,15.02
2022-12-22T05:16:41.330Z,15.13
2022-12-22T05:19:14.130Z,14.18
2022-12-22T05:21:46.745Z,13.00
2022-12-22T05:24:19.390Z,15.40
2022-12-22T05:26:51.971Z,11.57
2022-12-22T05:29:24.763Z,14.48
2022-12-22T05:31:57.391Z,14.70
2022-12-22T05:34:30.225Z,17.20
2022-12-22T05:37:02.736Z,17.40
2022-12-22T05:39:35.242Z,16.20
2022-12-22T05:42:07.829Z,16.55
2022-12-22T05:44:40.515Z,14.38
2022-12-22T05:47:13.102Z,17.60
2022-12-22T05:49:45.715Z,16.65
2022-12-22T05:52:18.354Z,14.95
2022-12-22T05:54:51.101Z,15.38
2022-12-22T05:57:23.978Z,16.23
2022-12-22T05:59:56.927Z,19.45
2022-12-22T06:02:29.691Z,15.23
2022-12-22T06:05:02.450Z,17.20
2022-12-22T06:07:35.224Z,21.00
2022-12-22T06:10:12.737Z,19.98
2022-12-22T06:12:45.724Z,21.20
2022-12-22T06:15:18.493Z,22.40
2022-12-22T06:17:51.016Z,20.13
2022-12-22T06:20:23.786Z,20.42
2022-12-22T06:22:56.312Z,20.10
2022-12-22T06:25:29.365Z,19.83
2022-12-22T06:28:01.978Z,16.35
2022-12-22T06:30:34.621Z,22.80
2022-12-22T06:33:07.275Z,21.17
2022-12-22T06:35:39.914Z,19.27
2022-12-22T06:38:12.688Z,22.60
2022-12-22T06:40:45.293Z,21.30
2022-12-22T06:43:17.918Z,20.20
2022-12-22T06:45:50.648Z,21.30
2022-12-22T06:48:23.457Z,20.13
2022-12-22T06:51:00.627Z,21.08
2022-12-22T06:53:33.348Z,25.45
2022-12-22T06:56:06.390Z,18.48
2022-12-22T06:58:38.923Z,18.65
2022-12-22T07:01:11.564Z,20.80
2022-12-22T07:03:44.230Z,20.60
2022-12-22T07:06:18.730Z,18.77
2022-12-22T07:08:51.883Z,20.48
2022-12-22T07:11:24.442Z,20.15
2022-12-22T07:13:57.080Z,18.90
2022-12-22T07:16:29.760Z,18.58
2022-12-22T07:19:02.675Z,21.95
2022-12-22T07:21:35.213Z,16.88
2022-12-22T07:24:08.140Z,20.00
2022-12-22T07:26:41.765Z,15.02
2022-12-22T07:29:14.281Z,18.27
2022-12-22T07:31:47.017Z,18.95
2022-12-22T07:34:19.719Z,17.92
2022-12-22T07:36:52.249Z,18.20
2022-12-22T07:39:24.966Z,18.52
2022-12-22T07:42:16.149Z,17.83
2022-12-22T07:44:48.709Z,18.75
2022-12-22T07:47:46.164Z,21.25
2022-12-22T07:50:32.701Z,17.75
2022-12-22T07:53:05.743Z,18.13
2022-12-22T07:55:38.448Z,22.40
2022-12-22T07:58:11.075Z,21.45
2022-12-22T08:00:43.601Z,25.83
2022-12-22T08:03:16.244Z,19.40
2022-12-22T08:05:48.855Z,18.75
2022-12-22T08:08:21.576Z,16.15
2022-12-22T08:10:54.307Z,14.05
2022-12-22T08:13:26.939Z,15.13
2022-12-22T08:16:08.864Z,13.25
2022-12-22T08:18:42.085Z,7.70
2022-12-22T08:23:47.195Z,10.57
2022-12-22T08:26:26.774Z,11.63
2022-12-22T08:29:22.922Z,11.05
2022-12-22T08:31:56.009Z,8.30
2022-12-22T08:34:28.935Z,8.65
2022-12-22T08:37:03.411Z,8.07
2022-12-22T08:39:39.610Z,4.35
2022-12-22T08:42:15.798Z,6.78
2022-12-22T08:44:53.504Z,7.90
2022-12-22T08:47:26.148Z,6.45
2022-12-22T08:49:58.808Z,6.15
2022-12-22T08:52:32.116Z,10.30
2022-12-22T08:55:04.989Z,6.30
2022-12-22T08:57:37.974Z,7.35
2022-12-22T09:00:13.456Z,6.75
2022-12-22T09:02:46.364Z,5.78
2022-12-22T09:05:19.525Z,4.28
2022-12-22T09:07:52.128Z,5.70
2022-12-22T09:10:24.748Z,6.53
2022-12-22T09:12:57.410Z,4.47
2022-12-22T09:15:29.924Z,6.65
2022-12-22T09:18:02.524Z,6.57
2022-12-22T09:20:35.194Z,4.93
2022-12-22T09:23:07.825Z,5.05
2022-12-22T09:25:40.497Z,5.18
2022-12-22T09:28:13.271Z,3.42
2022-12-22T09:30:53.394Z,4.40
2022-12-22T09:33:26.656Z,5.07
2022-12-22T09:35:59.393Z,8.60
2022-12-22T09:38:42.137Z,12.40
2022-12-22T09:44:17.826Z,15.15
2022-12-22T09:46:51.293Z,14.20
2022-12-22T09:49:24.245Z,15.77
2022-12-22T09:51:59.846Z,13.48
2022-12-22T09:54:32.465Z,12.43
2022-12-22T09:57:11.912Z,12.93
2022-12-22T09:59:44.532Z,11.85
2022-12-22T10:02:32.969Z,15.57
2022-12-22T10:05:31.185Z,11.55
2022-12-22T10:08:13.978Z,10.15
2022-12-22T10:10:46.603Z,9.05
2022-12-22T10:13:20.039Z,7.15
2022-12-22T10:15:53.518Z,8.05
2022-12-22T10:18:28.458Z,15.65
2022-12-22T10:21:15.612Z,10.18
2022-12-22T10:23:49.058Z,9.45
2022-12-22T10:26:29.131Z,7.97
2022-12-22T10:29:10.846Z,8.35
2022-12-22T10:32:06.011Z,6.38
2022-12-22T10:34:44.355Z,9.23
2022-12-22T10:37:17.060Z,12.00
2022-12-22T10:39:49.683Z,8.13
2022-12-22T10:42:22.427Z,7.57
2022-12-22T10:44:55.362Z,8.27
2022-12-22T10:47:27.897Z,11.30
2022-12-22T10:52:33.279Z,15.30
2022-12-22T10:55:26.076Z,12.88
2022-12-22T10:58:21.917Z,8.23
2022-12-22T11:01:05.570Z,9.18
2022-12-22T11:03:38.570Z,7.55
2022-12-22T11:08:51.240Z,8.90
2022-12-22T11:11:40.090Z,7.63
2022-12-22T11:14:24.345Z,6.75
2022-12-22T11:17:10.775Z,11.98
2022-12-22T11:20:20.875Z,10.20
2022-12-22T11:23:19.312Z,15.52
2022-12-22T11:26:11.689Z,11.48
2022-12-22T11:29:33.132Z,10.18
2022-12-22T11:32:48.944Z,4.97
2022-12-22T11:35:30.079Z,5.57
2022-12-22T11:38:12.446Z,9.30
2022-12-22T11:40:50.001Z,7.32
2022-12-22T11:43:28.861Z,8.85
2022-12-22T11:46:28.242Z,5.38
2022-12-22T11:49:19.263Z,6.63
2022-12-22T11:52:16.064Z,4.97
2022-12-22T11:55:16.059Z,4.63
2022-12-22T11:58:07.300Z,5.78
2022-12-22T12:01:14.038Z,3.65
2022-12-22T12:04:01.144Z,5.43
2022-12-22T12:10:07.075Z,2.72
2022-12-22T12:12:45.579Z,4.80
2022-12-22T12:15:40.888Z,4.35
2022-12-22T12:18:19.997Z,3.92
2022-12-22T12:21:05.115Z,5.05
2022-12-22T12:23:43.784Z,4.70
2022-12-22T12:26:28.076Z,7.30
2022-12-22T12:29:20.497Z,6.28
2022-12-22T12:32:05.879Z,6.60
2022-12-22T12:34:45.013Z,6.93
2022-12-22T12:37:26.587Z,4.18
2022-12-22T12:40:18.108Z,3.30
2022-12-22T12:42:51.488Z,6.10
2022-12-22T12:45:43.763Z,4.30
2022-12-22T12:48:24.786Z,4.80
2022-12-22T12:50:58.556Z,5.03
2022-12-22T12:57:00.968Z,3.75
2022-12-22T12:59:42.522Z,5.22
2022-12-22T13:02:40.297Z,4.10
2022-12-22T13:05:27.958Z,7.35
2022-12-22T13:08:23.659Z,4.53
2022-12-22T13:10:56.152Z,4.15
2022-12-22T13:13:28.629Z,3.33
2022-12-22T13:16:03.760Z,4.20
2022-12-22T13:18:49.771Z,4.78
2022-12-22T13:24:30.839Z,4.00
2022-12-22T13:27:07.482Z,5.03
2022-12-22T13:29:44.560Z,3.50
2022-12-22T13:32:26.648Z,5.47
2022-12-22T13:35:35.634Z,3.85
2022-12-22T13:38:29.696Z,6.30
2022-12-22T13:41:20.099Z,4.03
2022-12-22T13:44:03.684Z,4.38
2022-12-22T13:46:37.718Z,7.63
2022-12-22T13:49:35.962Z,4.28
2022-12-22T13:52:15.316Z,5.65
2022-12-22T13:54:48.289Z,5.13
2022-12-22T13:57:22.725Z,9.57
2022-12-22T13:59:55.449Z,5.70
2022-12-22T14:02:33.498Z,5.88
2022-12-22T14:05:09.900Z,5.13
2022-12-22T14:07:59.239Z,3.42
2022-12-22T14:10:42.499Z,4.78
2022-12-22T14:13:20.112Z,6.80
2022-12-22T14:16:05.424Z,8.27
2022-12-22T14:18:39.145Z,5.95
2022-12-22T14:21:12.437Z,3.30
2022-12-22T14:26:23.824Z,4.32
2022-12-22T14:28:57.587Z,8.32
2022-12-22T14:31:30.373Z,5.90
2022-12-22T14:34:05.709Z,5.70
2022-12-22T14:36:41.784Z,5.43
2022-12-22T14:39:26.024Z,2.92
2022-12-22T14:42:13.904Z,2.88
2022-12-22T14:44:48.136Z,3.28
2022-12-22T14:47:26.384Z,4.32
2022-12-22T14:50:03.398Z,4.15
2022-12-22T14:52:47.272Z,3.60
2022-12-22T14:55:39.746Z,7.43
2022-12-22T14:58:35.481Z,4.38
2022-12-22T15:01:25.369Z,7.30
2022-12-22T15:04:02.521Z,6.10
2022-12-22T15:06:48.131Z,6.95
2022-12-22T15:09:39.712Z,6.00
2022-12-22T15:12:18.233Z,5.78
2022-12-22T15:14:50.973Z,4.55
2022-12-22T15:17:28.075Z,6.47
2022-12-22T15:20:00.928Z,6.15
2022-12-22T15:22:33.602Z,5.07
2022-12-22T15:25:14.026Z,6.07
2022-12-22T15:27:46.993Z,5.63
2022-12-22T15:30:30.007Z,2.45
2022-12-22T15:33:02.719Z,4.20
2022-12-22T15:35:35.934Z,3.22
2022-12-22T15:40:49.264Z,2.38
2022-12-22T15:46:22.448Z,3.22
2022-12-22T15:48:55.371Z,4.38
2022-12-22T15:51:30.191Z,4.25
2022-12-22T15:54:04.744Z,4.03
2022-12-22T15:56:37.365Z,3.25
2022-12-22T15:59:28.131Z,3.70
2022-12-22T16:02:02.071Z,3.55
2022-12-22T16:04:35.136Z,6.35
2022-12-22T16:07:10.197Z,2.75
2022-12-22T16:09:45.648Z,3.38
2022-12-22T16:12:19.746Z,3.95
2022-12-22T16:14:58.000Z,5.55
2022-12-22T16:17:31.224Z,4.57
2022-12-22T16:22:37.939Z,5.03
2022-12-22T16:25:24.251Z,4.03
2022-12-22T16:27:56.877Z,3.13
2022-12-22T16:30:32.734Z,3.33
2022-12-22T16:33:05.350Z,4.72
2022-12-22T16:35:41.487Z,3.95
2022-12-22T16:38:18.700Z,2.45
2022-12-22T16:40:54.379Z,3.35
2022-12-22T16:43:50.750Z,2.38
2022-12-22T16:46:24.287Z,3.30
2022-12-22T16:49:01.419Z,3.20
2022-12-22T16:51:34.767Z,2.17
2022-12-22T16:54:14.683Z,4.00
2022-12-22T16:56:47.314Z,6.20
2022-12-22T16:59:20.058Z,2.60
2022-12-22T17:01:57.227Z,5.10
2022-12-22T17:04:32.148Z,2.58
2022-12-22T17:07:06.846Z,6.60
2022-12-22T17:09:55.641Z,2.03
2022-12-22T17:12:30.887Z,4.88
2022-12-22T17:15:03.559Z,3.45
2022-12-22T17:17:41.931Z,3.08
2022-12-22T17:20:20.064Z,6.25
2022-12-22T17:22:57.061Z,3.85
2022-12-22T17:25:31.464Z,6.53
2022-12-22T17:28:04.118Z,5.57
2022-12-22T17:30:36.824Z,4.07
2022-12-22T17:33:18.765Z,6.35
2022-12-22T17:35:51.892Z,7.57
2022-12-22T17:38:27.253Z,6.30
2022-12-22T17:41:01.412Z,5.97
2022-12-22T17:43:35.560Z,5.93
2022-12-22T17:46:19.661Z,6.32
2022-12-22T17:48:54.457Z,5.75
2022-12-22T17:51:30.709Z,9.48
2022-12-22T17:54:03.556Z,12.75
2022-12-22T17:56:36.242Z,10.30
2022-12-22T17:59:12.475Z,11.85
2022-12-22T18:01:45.417Z,9.18
2022-12-22T18:04:18.408Z,11.85
2022-12-22T18:06:51.311Z,14.82
2022-12-22T18:09:26.783Z,14.65
2022-12-22T18:11:59.427Z,16.25
2022-12-22T18:14:32.187Z,18.10
2022-12-22T18:17:04.726Z,15.90
2022-12-22T18:19:37.534Z,13.10
2022-12-22T18:22:21.986Z,13.77
2022-12-22T18:24:55.825Z,13.80
2022-12-22T18:27:28.906Z,10.35
2022-12-22T18:30:26.728Z,12.23
2022-12-22T18:32:59.455Z,18.67
2022-12-22T18:35:32.626Z,11.25
2022-12-22T18:38:06.305Z,12.90
2022-12-22T18:40:40.063Z,16.27
2022-12-22T18:43:13.960Z,17.27
2022-12-22T18:45:50.892Z,15.52
2022-12-22T18:48:26.676Z,14.57
2022-12-22T18:50:59.506Z,11.88
2022-12-22T18:53:33.113Z,10.32
2022-12-22T18:56:05.871Z,19.38
2022-12-22T18:58:44.159Z,11.88
2022-12-22T19:01:26.957Z,11.90
2022-12-22T19:04:24.672Z,17.00
2022-12-22T19:06:57.228Z,18.08
2022-12-22T19:09:29.894Z,16.65
2022-12-22T19:12:02.710Z,16.55
2022-12-22T19:14:35.306Z,17.13
2022-12-22T19:17:22.472Z,14.35
2022-12-22T19:19:55.795Z,16.63
2022-12-22T19:25:00.822Z,16.30
2022-12-22T19:27:33.568Z,18.20
2022-12-22T19:30:06.949Z,19.20
2022-12-22T19:32:46.260Z,21.70
2022-12-22T19:35:21.888Z,14.73
2022-12-22T19:37:54.975Z,15.98
2022-12-22T19:40:33.244Z,15.13
2022-12-22T19:43:05.882Z,16.70
2022-12-22T19:45:38.563Z,14.45
2022-12-22T19:48:18.992Z,16.63
2022-12-22T19:50:52.500Z,16.00
2022-12-22T19:53:26.784Z,14.43
2022-12-22T19:55:59.311Z,15.13
2022-12-22T19:58:40.643Z,14.50
2022-12-22T20:01:13.349Z,17.73
2022-12-22T20:03:46.008Z,17.83
2022-12-22T20:06:18.720Z,20.02
2022-12-22T20:08:51.354Z,17.75
2022-12-22T20:11:23.834Z,18.38
2022-12-22T20:13:56.562Z,18.13
2022-12-22T20:16:29.192Z,18.15
2022-12-22T20:19:01.837Z,23.30
2022-12-22T20:21:35.328Z,16.33
2022-12-22T20:24:08.604Z,27.20
2022-12-22T20:29:13.631Z,16.92
2022-12-22T20:31:46.321Z,17.45
2022-12-22T20:34:19.112Z,17.48
2022-12-22T20:36:51.773Z,18.38
2022-12-22T20:39:24.602Z,14.35
2022-12-22T20:41:57.295Z,16.92
2022-12-22T20:44:29.979Z,21.27
2022-12-22T20:47:02.785Z,17.65
2022-12-22T20:49:38.693Z,15.68
2022-12-22T20:52:19.019Z,19.38
2022-12-22T20:54:51.624Z,17.30
2022-12-22T20:57:25.335Z,19.98
2022-12-22T20:59:57.867Z,18.63
2022-12-22T21:02:30.700Z,19.08
2022-12-22T21:05:03.765Z,17.45
2022-12-22T21:07:36.398Z,15.50
2022-12-22T21:10:19.489Z,17.98
2022-12-22T21:12:52.493Z,14.63
2022-12-22T21:15:29.018Z,19.13
2022-12-22T21:18:01.624Z,20.83
2022-12-22T21:20:34.368Z,20.80
2022-12-22T21:23:07.170Z,15.63
2022-12-22T21:25:46.226Z,18.23
2022-12-22T21:28:30.302Z,16.63
2022-12-22T21:31:04.171Z,17.67
2022-12-22T21:33:36.833Z,18.88
2022-12-22T21:36:23.444Z,17.33
2022-12-22T21:38:59.364Z,13.05
2022-12-22T21:41:50.584Z,15.85
2022-12-22T21:44:23.214Z,14.07
2022-12-22T21:46:57.396Z,14.88
2022-12-22T21:49:32.214Z,15.88
2022-12-22T21:52:05.009Z,16.48
2022-12-22T21:54:37.687Z,15.40
2022-12-22T21:57:16.215Z,16.33
2022-12-22T21:59:48.848Z,16.38
2022-12-22T22:02:21.493Z,16.58
2022-12-22T22:04:55.393Z,15.93
2022-12-22T22:07:28.230Z,14.48
2022-12-22T22:10:00.756Z,16.02
2022-12-22T22:12:33.336Z,13.93
2022-12-22T22:15:07.493Z,17.10
2022-12-22T22:17:40.530Z,15.75
2022-12-22T22:20:17.842Z,15.23
2022-12-22T22:22:51.964Z,13.88
2022-12-22T22:25:25.786Z,22.52
2022-12-22T22:28:01.286Z,13.82
2022-12-22T22:30:33.999Z,16.70
2022-12-22T22:33:06.530Z,15.23
2022-12-22T22:35:40.866Z,18.57
2022-12-22T22:38:16.998Z,19.58
2022-12-22T22:40:49.665Z,14.18
2022-12-22T22:43:22.355Z,18.30
2022-12-22T22:45:55.010Z,18.63
2022-12-22T22:48:27.559Z,12.30
2022-12-22T22:51:00.297Z,17.85
2022-12-22T22:53:32.824Z,15.57
2022-12-22T22:56:05.722Z,15.30
2022-12-22T22:58:38.301Z,16.17
2022-12-22T23:01:12.013Z,14.20
2022-12-22T23:03:44.719Z,15.40
2022-12-22T23:06:17.366Z,15.80
2022-12-22T23:08:50.139Z,13.73
2022-12-22T23:11:22.938Z,12.48
2022-12-22T23:13:56.537Z,13.63
2022-12-22T23:16:33.882Z,16.20
2022-12-22T23:19:10.383Z,16.52
2022-12-22T23:21:43.138Z,14.32
2022-12-22T23:24:16.530Z,14.55
2022-12-22T23:26:49.704Z,14.85
2022-12-22T23:29:22.226Z,14.52
2022-12-22T23:31:54.852Z,15.82
2022-12-22T23:34:27.885Z,12.20
2022-12-22T23:37:00.425Z,13.98
2022-12-22T23:39:32.995Z,15.02
2022-12-22T23:42:05.572Z,14.30
2022-12-22T23:44:38.186Z,15.20
2022-12-22T23:47:10.879Z,12.23
2022-12-22T23:49:43.442Z,15.68
2022-12-22T23:52:15.985Z,13.35
2022-12-22T23:54:48.629Z,13.07
2022-12-22T23:57:21.236Z,14.52
2022-12-22T23:59:53.853Z,15.40
